Terminal Aerodrome Forecast
Issued by NWS Grand Junction, CO

Home | Current Version | Previous Version | Text Only | Print | Product List | Glossary On
Versions: 1 2 3 4 5 6 7 8 9 10 11 12 13 14 15 16 17 18 19 20 21 22 23 24 25
000
FTUS45 KGJT 210201 AAB
TAFGJT
TAF AMD
KGJT 210201Z 2102/2124 05012KT P6SM FEW120 SCT180
     FM210600 11009KT P6SM SCT070 BKN120
     FM211200 13012KT P6SM VCSH SCT050 BKN080
     FM211700 17010KT P6SM SCT110 SCT180=

USA.gov is the U.S. government's official web portal to all federal, state and local government web resources and services.